sensor_id;sensor_type;location;lat;lon;timestamp;temperature;humidity
21487;DHT22;10905;50.822;4.336;2024-03-06T00:02:21;8.30;99.90
21487;DHT22;10905;50.822;4.336;2024-03-06T00:04:46;8.30;99.90
21487;DHT22;10905;50.822;4.336;2024-03-06T00:07:12;8.30;99.90
21487;DHT22;10905;50.822;4.336;2024-03-06T00:09:37;8.50;99.90
21487;DHT22;10905;50.822;4.336;2024-03-06T00:12:03;8.30;99.90
21487;DHT22;10905;50.822;4.336;2024-03-06T00:14:29;8.30;99.90
21487;DHT22;10905;50.822;4.336;2024-03-06T00:16:55;8.20;99.90
21487;DHT22;10905;50.822;4.336;2024-03-06T00:19:23;8.30;99.90
21487;DHT22;10905;50.822;4.336;2024-03-06T00:21:49;8.20;99.90
21487;DHT22;10905;50.822;4.336;2024-03-06T00:24:15;8.30;99.90
21487;DHT22;10905;50.822;4.336;2024-03-06T00:26:41;8.20;99.90
21487;DHT22;10905;50.822;4.336;2024-03-06T00:29:08;8.10;99.90
21487;DHT22;10905;50.822;4.336;2024-03-06T00:31:34;8.10;99.90
21487;DHT22;10905;50.822;4.336;2024-03-06T00:34:00;8.10;99.90
21487;DHT22;10905;50.822;4.336;2024-03-06T00:36:25;8.20;99.90
21487;DHT22;10905;50.822;4.336;2024-03-06T00:38:51;8.20;99.90
21487;DHT22;10905;50.822;4.336;2024-03-06T00:41:17;8.10;99.90
21487;DHT22;10905;50.822;4.336;2024-03-06T00:43:43;8.20;99.90
21487;DHT22;10905;50.822;4.336;2024-03-06T00:46:08;8.10;99.90
21487;DHT22;10905;50.822;4.336;2024-03-06T00:48:34;8.10;99.90
21487;DHT22;10905;50.822;4.336;2024-03-06T00:51:00;8.20;99.90
21487;DHT22;10905;50.822;4.336;2024-03-06T00:53:25;8.10;99.90
21487;DHT22;10905;50.822;4.336;2024-03-06T00:55:51;8.10;99.90
21487;DHT22;10905;50.822;4.336;2024-03-06T00:58:16;8.10;99.90
21487;DHT22;10905;50.822;4.336;2024-03-06T01:00:42;8.10;99.90
21487;DHT22;10905;50.822;4.336;2024-03-06T01:03:07;8.00;99.90
21487;DHT22;10905;50.822;4.336;2024-03-06T01:05:33;8.00;99.90
21487;DHT22;10905;50.822;4.336;2024-03-06T01:07:59;8.00;99.90
21487;DHT22;10905;50.822;4.336;2024-03-06T01:10:24;8.00;99.90
21487;DHT22;10905;50.822;4.336;2024-03-06T01:12:50;8.00;99.90
21487;DHT22;10905;50.822;4.336;2024-03-06T01:15:16;8.00;99.90
21487;DHT22;10905;50.822;4.336;2024-03-06T01:17:41;8.00;99.90
21487;DHT22;10905;50.822;4.336;2024-03-06T01:20:08;8.00;99.90
21487;DHT22;10905;50.822;4.336;2024-03-06T01:22:34;7.90;99.90
21487;DHT22;10905;50.822;4.336;2024-03-06T01:25:00;7.90;99.90
21487;DHT22;10905;50.822;4.336;2024-03-06T01:27:26;7.90;99.90
21487;DHT22;10905;50.822;4.336;2024-03-06T01:29:52;7.80;99.90
21487;DHT22;10905;50.822;4.336;2024-03-06T01:32:18;7.70;99.90
21487;DHT22;10905;50.822;4.336;2024-03-06T01:34:43;7.60;99.90
21487;DHT22;10905;50.822;4.336;2024-03-06T01:37:09;7.60;99.90
21487;DHT22;10905;50.822;4.336;2024-03-06T01:39:34;7.50;99.90
21487;DHT22;10905;50.822;4.336;2024-03-06T01:42:02;7.50;99.90
21487;DHT22;10905;50.822;4.336;2024-03-06T01:44:29;7.50;99.90
21487;DHT22;10905;50.822;4.336;2024-03-06T01:46:54;7.50;99.90
21487;DHT22;10905;50.822;4.336;2024-03-06T01:49:21;7.50;99.90
21487;DHT22;10905;50.822;4.336;2024-03-06T01:51:56;7.40;99.90
21487;DHT22;10905;50.822;4.336;2024-03-06T01:54:23;7.40;99.90
21487;DHT22;10905;50.822;4.336;2024-03-06T01:56:50;7.50;99.90
21487;DHT22;10905;50.822;4.336;2024-03-06T01:59:17;7.50;99.90
21487;DHT22;10905;50.822;4.336;2024-03-06T02:01:45;7.50;99.90
21487;DHT22;10905;50.822;4.336;2024-03-06T02:04:11;7.40;99.90
21487;DHT22;10905;50.822;4.336;2024-03-06T02:06:41;7.40;99.90
21487;DHT22;10905;50.822;4.336;2024-03-06T02:09:07;7.30;99.90
21487;DHT22;10905;50.822;4.336;2024-03-06T02:11:33;7.40;99.90
21487;DHT22;10905;50.822;4.336;2024-03-06T02:13:59;7.30;99.90
21487;DHT22;10905;50.822;4.336;2024-03-06T02:16:24;7.30;99.90
21487;DHT22;10905;50.822;4.336;2024-03-06T02:18:52;7.30;99.90
21487;DHT22;10905;50.822;4.336;2024-03-06T02:21:19;7.20;99.90
21487;DHT22;10905;50.822;4.336;2024-03-06T02:23:45;7.30;99.90
21487;DHT22;10905;50.822;4.336;2024-03-06T02:26:10;7.20;99.90
21487;DHT22;10905;50.822;4.336;2024-03-06T02:28:36;7.20;99.90
21487;DHT22;10905;50.822;4.336;2024-03-06T02:31:02;7.20;99.90
21487;DHT22;10905;50.822;4.336;2024-03-06T02:33:27;7.20;99.90
21487;DHT22;10905;50.822;4.336;2024-03-06T02:35:53;7.10;99.90
21487;DHT22;10905;50.822;4.336;2024-03-06T02:38:18;7.10;99.90
21487;DHT22;10905;50.822;4.336;2024-03-06T02:40:44;7.10;99.90
21487;DHT22;10905;50.822;4.336;2024-03-06T02:43:10;7.10;99.90
21487;DHT22;10905;50.822;4.336;2024-03-06T02:45:36;7.00;99.90
21487;DHT22;10905;50.822;4.336;2024-03-06T02:48:01;7.00;99.90
21487;DHT22;10905;50.822;4.336;2024-03-06T02:50:27;7.00;99.90
21487;DHT22;10905;50.822;4.336;2024-03-06T02:52:52;7.00;99.90
21487;DHT22;10905;50.822;4.336;2024-03-06T02:55:18;7.00;99.90
21487;DHT22;10905;50.822;4.336;2024-03-06T02:57:44;7.10;99.90
21487;DHT22;10905;50.822;4.336;2024-03-06T03:00:10;7.10;99.90
21487;DHT22;10905;50.822;4.336;2024-03-06T03:02:41;7.20;99.90
21487;DHT22;10905;50.822;4.336;2024-03-06T03:05:08;7.10;99.90
21487;DHT22;10905;50.822;4.336;2024-03-06T03:07:33;7.10;99.90
21487;DHT22;10905;50.822;4.336;2024-03-06T03:09:59;7.10;99.90
21487;DHT22;10905;50.822;4.336;2024-03-06T03:12:25;7.00;99.90
21487;DHT22;10905;50.822;4.336;2024-03-06T03:14:50;7.00;99.90
21487;DHT22;10905;50.822;4.336;2024-03-06T03:17:20;7.00;99.90
21487;DHT22;10905;50.822;4.336;2024-03-06T03:19:45;7.10;99.90
21487;DHT22;10905;50.822;4.336;2024-03-06T03:22:11;7.10;99.90
21487;DHT22;10905;50.822;4.336;2024-03-06T03:24:36;7.00;99.90
21487;DHT22;10905;50.822;4.336;2024-03-06T03:27:02;7.00;99.90
21487;DHT22;10905;50.822;4.336;2024-03-06T03:29:29;7.00;99.90
21487;DHT22;10905;50.822;4.336;2024-03-06T03:31:55;7.00;99.90
21487;DHT22;10905;50.822;4.336;2024-03-06T03:34:20;7.00;99.90
21487;DHT22;10905;50.822;4.336;2024-03-06T03:36:46;7.00;99.90
21487;DHT22;10905;50.822;4.336;2024-03-06T03:39:13;6.90;99.90
21487;DHT22;10905;50.822;4.336;2024-03-06T03:41:45;6.80;99.90
21487;DHT22;10905;50.822;4.336;2024-03-06T03:44:12;6.90;99.90
21487;DHT22;10905;50.822;4.336;2024-03-06T03:46:38;6.90;99.90
21487;DHT22;10905;50.822;4.336;2024-03-06T03:49:04;6.90;99.90
21487;DHT22;10905;50.822;4.336;2024-03-06T03:51:29;6.90;99.90
21487;DHT22;10905;50.822;4.336;2024-03-06T03:53:55;6.80;99.90
21487;DHT22;10905;50.822;4.336;2024-03-06T03:56:20;6.80;99.90
21487;DHT22;10905;50.822;4.336;2024-03-06T03:58:47;6.90;99.90
21487;DHT22;10905;50.822;4.336;2024-03-06T04:01:12;6.90;99.90
21487;DHT22;10905;50.822;4.336;2024-03-06T04:03:38;6.80;99.90
21487;DHT22;10905;50.822;4.336;2024-03-06T04:06:04;6.80;99.90
21487;DHT22;10905;50.822;4.336;2024-03-06T04:08:29;6.80;99.90
21487;DHT22;10905;50.822;4.336;2024-03-06T04:10:55;6.80;99.90
21487;DHT22;10905;50.822;4.336;2024-03-06T04:13:21;6.80;99.90
21487;DHT22;10905;50.822;4.336;2024-03-06T04:15:46;6.80;99.90
21487;DHT22;10905;50.822;4.336;2024-03-06T04:18:12;6.80;99.90
21487;DHT22;10905;50.822;4.336;2024-03-06T04:20:38;6.70;99.90
21487;DHT22;10905;50.822;4.336;2024-03-06T04:23:03;6.70;99.90
21487;DHT22;10905;50.822;4.336;2024-03-06T04:25:29;6.70;99.90
21487;DHT22;10905;50.822;4.336;2024-03-06T04:27:55;6.80;99.90
21487;DHT22;10905;50.822;4.336;2024-03-06T04:30:20;6.70;99.90
21487;DHT22;10905;50.822;4.336;2024-03-06T04:32:46;6.70;99.90
21487;DHT22;10905;50.822;4.336;2024-03-06T04:35:12;6.70;99.90
21487;DHT22;10905;50.822;4.336;2024-03-06T04:37:38;6.60;99.90
21487;DHT22;10905;50.822;4.336;2024-03-06T04:40:04;6.70;99.90
21487;DHT22;10905;50.822;4.336;2024-03-06T04:42:37;6.70;99.90
21487;DHT22;10905;50.822;4.336;2024-03-06T04:45:11;6.70;99.90
21487;DHT22;10905;50.822;4.336;2024-03-06T04:47:38;6.70;99.90
21487;DHT22;10905;50.822;4.336;2024-03-06T04:50:03;6.60;99.90
21487;DHT22;10905;50.822;4.336;2024-03-06T04:52:34;6.70;99.90
21487;DHT22;10905;50.822;4.336;2024-03-06T04:55:00;6.70;99.90
21487;DHT22;10905;50.822;4.336;2024-03-06T04:57:25;6.70;99.90
21487;DHT22;10905;50.822;4.336;2024-03-06T04:59:52;6.70;99.90
21487;DHT22;10905;50.822;4.336;2024-03-06T05:02:17;6.60;99.90
21487;DHT22;10905;50.822;4.336;2024-03-06T05:04:43;6.70;99.90
21487;DHT22;10905;50.822;4.336;2024-03-06T05:07:08;6.60;99.90
21487;DHT22;10905;50.822;4.336;2024-03-06T05:09:34;6.70;99.90
21487;DHT22;10905;50.822;4.336;2024-03-06T05:12:00;6.70;99.90
21487;DHT22;10905;50.822;4.336;2024-03-06T05:14:26;6.70;99.90
21487;DHT22;10905;50.822;4.336;2024-03-06T05:16:51;6.70;99.90
21487;DHT22;10905;50.822;4.336;2024-03-06T05:19:18;6.60;99.90
21487;DHT22;10905;50.822;4.336;2024-03-06T05:21:44;6.70;99.90
21487;DHT22;10905;50.822;4.336;2024-03-06T05:24:09;6.70;99.90
21487;DHT22;10905;50.822;4.336;2024-03-06T05:26:35;6.60;99.90
21487;DHT22;10905;50.822;4.336;2024-03-06T05:29:00;6.50;99.90
21487;DHT22;10905;50.822;4.336;2024-03-06T05:31:26;6.50;99.90
21487;DHT22;10905;50.822;4.336;2024-03-06T05:33:52;6.50;99.90
21487;DHT22;10905;50.822;4.336;2024-03-06T05:36:18;6.60;99.90
21487;DHT22;10905;50.822;4.336;2024-03-06T05:38:46;6.60;99.90
21487;DHT22;10905;50.822;4.336;2024-03-06T05:41:13;6.60;99.90
21487;DHT22;10905;50.822;4.336;2024-03-06T05:43:39;6.60;99.90
21487;DHT22;10905;50.822;4.336;2024-03-06T05:46:06;6.60;99.90
21487;DHT22;10905;50.822;4.336;2024-03-06T05:48:32;6.60;99.90
21487;DHT22;10905;50.822;4.336;2024-03-06T05:50:59;6.50;99.90
21487;DHT22;10905;50.822;4.336;2024-03-06T05:53:24;6.50;99.90
21487;DHT22;10905;50.822;4.336;2024-03-06T05:55:50;6.50;99.90
21487;DHT22;10905;50.822;4.336;2024-03-06T05:58:15;6.50;99.90
21487;DHT22;10905;50.822;4.336;2024-03-06T06:00:41;6.50;99.90
21487;DHT22;10905;50.822;4.336;2024-03-06T06:03:08;6.50;99.90
21487;DHT22;10905;50.822;4.336;2024-03-06T06:05:37;6.50;99.90
21487;DHT22;10905;50.822;4.336;2024-03-06T06:08:04;6.40;99.90
21487;DHT22;10905;50.822;4.336;2024-03-06T06:10:30;6.40;99.90
21487;DHT22;10905;50.822;4.336;2024-03-06T06:12:56;6.40;99.90
21487;DHT22;10905;50.822;4.336;2024-03-06T06:15:21;6.50;99.90
21487;DHT22;10905;50.822;4.336;2024-03-06T06:17:48;6.50;99.90
21487;DHT22;10905;50.822;4.336;2024-03-06T06:20:13;6.50;99.90
21487;DHT22;10905;50.822;4.336;2024-03-06T06:22:41;6.50;99.90
21487;DHT22;10905;50.822;4.336;2024-03-06T06:25:07;6.40;99.90
21487;DHT22;10905;50.822;4.336;2024-03-06T06:27:33;6.40;99.90
21487;DHT22;10905;50.822;4.336;2024-03-06T06:29:59;6.50;99.90
21487;DHT22;10905;50.822;4.336;2024-03-06T06:32:24;6.50;99.90
21487;DHT22;10905;50.822;4.336;2024-03-06T06:34:50;6.50;99.90
21487;DHT22;10905;50.822;4.336;2024-03-06T06:37:17;6.50;99.90
21487;DHT22;10905;50.822;4.336;2024-03-06T06:39:43;6.50;99.90
21487;DHT22;10905;50.822;4.336;2024-03-06T06:42:09;6.50;99.90
21487;DHT22;10905;50.822;4.336;2024-03-06T06:44:36;6.50;99.90
21487;DHT22;10905;50.822;4.336;2024-03-06T06:47:02;6.60;99.90
21487;DHT22;10905;50.822;4.336;2024-03-06T06:49:28;6.50;99.90
21487;DHT22;10905;50.822;4.336;2024-03-06T06:51:54;6.60;99.90
21487;DHT22;10905;50.822;4.336;2024-03-06T06:54:19;6.60;99.90
21487;DHT22;10905;50.822;4.336;2024-03-06T06:56:45;6.70;99.90
21487;DHT22;10905;50.822;4.336;2024-03-06T06:59:10;6.80;99.90
21487;DHT22;10905;50.822;4.336;2024-03-06T07:01:37;6.80;99.90
21487;DHT22;10905;50.822;4.336;2024-03-06T07:04:03;6.80;99.90
21487;DHT22;10905;50.822;4.336;2024-03-06T07:06:28;6.80;99.90
21487;DHT22;10905;50.822;4.336;2024-03-06T07:08:54;6.80;99.90
21487;DHT22;10905;50.822;4.336;2024-03-06T07:11:20;6.90;99.90
21487;DHT22;10905;50.822;4.336;2024-03-06T07:13:49;6.80;99.90
21487;DHT22;10905;50.822;4.336;2024-03-06T07:16:15;6.90;99.90
21487;DHT22;10905;50.822;4.336;2024-03-06T07:18:41;6.90;99.90
21487;DHT22;10905;50.822;4.336;2024-03-06T07:21:06;7.00;99.90
21487;DHT22;10905;50.822;4.336;2024-03-06T07:23:32;7.10;99.90
21487;DHT22;10905;50.822;4.336;2024-03-06T07:25:58;7.10;99.90
21487;DHT22;10905;50.822;4.336;2024-03-06T07:28:25;7.20;99.90
21487;DHT22;10905;50.822;4.336;2024-03-06T07:30:51;7.20;99.90
21487;DHT22;10905;50.822;4.336;2024-03-06T07:33:17;7.10;99.90
21487;DHT22;10905;50.822;4.336;2024-03-06T07:35:42;7.10;99.90
21487;DHT22;10905;50.822;4.336;2024-03-06T07:38:08;7.00;99.90
21487;DHT22;10905;50.822;4.336;2024-03-06T07:40:33;7.10;99.90
21487;DHT22;10905;50.822;4.336;2024-03-06T07:42:59;7.10;99.90
21487;DHT22;10905;50.822;4.336;2024-03-06T07:45:25;7.30;99.90
21487;DHT22;10905;50.822;4.336;2024-03-06T07:47:52;7.30;99.90
21487;DHT22;10905;50.822;4.336;2024-03-06T07:50:17;7.30;99.90
21487;DHT22;10905;50.822;4.336;2024-03-06T07:52:45;7.40;99.90
21487;DHT22;10905;50.822;4.336;2024-03-06T07:55:11;7.40;99.90
21487;DHT22;10905;50.822;4.336;2024-03-06T07:57:37;7.40;99.90
21487;DHT22;10905;50.822;4.336;2024-03-06T08:00:04;7.50;99.90
21487;DHT22;10905;50.822;4.336;2024-03-06T08:02:42;7.60;99.90
21487;DHT22;10905;50.822;4.336;2024-03-06T08:05:10;7.60;99.90
21487;DHT22;10905;50.822;4.336;2024-03-06T08:07:40;7.70;99.90
21487;DHT22;10905;50.822;4.336;2024-03-06T08:10:09;7.70;99.90
21487;DHT22;10905;50.822;4.336;2024-03-06T08:12:35;7.80;99.90
21487;DHT22;10905;50.822;4.336;2024-03-06T08:15:00;7.90;99.90
21487;DHT22;10905;50.822;4.336;2024-03-06T08:17:27;7.90;99.90
21487;DHT22;10905;50.822;4.336;2024-03-06T08:19:53;8.00;99.90
21487;DHT22;10905;50.822;4.336;2024-03-06T08:22:18;7.90;99.90
21487;DHT22;10905;50.822;4.336;2024-03-06T08:24:44;8.00;99.90
21487;DHT22;10905;50.822;4.336;2024-03-06T08:27:10;8.10;99.90
21487;DHT22;10905;50.822;4.336;2024-03-06T08:29:35;8.20;99.90
21487;DHT22;10905;50.822;4.336;2024-03-06T08:32:01;8.20;99.90
21487;DHT22;10905;50.822;4.336;2024-03-06T08:34:26;8.30;99.90
21487;DHT22;10905;50.822;4.336;2024-03-06T08:36:52;8.30;99.90
21487;DHT22;10905;50.822;4.336;2024-03-06T08:39:18;8.40;99.90
21487;DHT22;10905;50.822;4.336;2024-03-06T08:41:45;8.50;99.90
21487;DHT22;10905;50.822;4.336;2024-03-06T08:44:11;8.60;99.90
21487;DHT22;10905;50.822;4.336;2024-03-06T08:46:37;8.70;99.90
21487;DHT22;10905;50.822;4.336;2024-03-06T08:49:02;8.60;99.90
21487;DHT22;10905;50.822;4.336;2024-03-06T08:51:28;8.70;99.90
21487;DHT22;10905;50.822;4.336;2024-03-06T08:53:53;8.80;99.90
21487;DHT22;10905;50.822;4.336;2024-03-06T08:56:19;8.80;99.90
21487;DHT22;10905;50.822;4.336;2024-03-06T08:58:45;8.90;99.90
21487;DHT22;10905;50.822;4.336;2024-03-06T09:01:10;8.80;99.90
21487;DHT22;10905;50.822;4.336;2024-03-06T09:03:36;8.70;99.90
21487;DHT22;10905;50.822;4.336;2024-03-06T09:06:01;8.80;99.90
21487;DHT22;10905;50.822;4.336;2024-03-06T09:08:28;8.80;99.90
21487;DHT22;10905;50.822;4.336;2024-03-06T09:10:53;9.10;99.90
21487;DHT22;10905;50.822;4.336;2024-03-06T09:13:19;9.10;99.90
21487;DHT22;10905;50.822;4.336;2024-03-06T09:15:45;9.10;99.90
21487;DHT22;10905;50.822;4.336;2024-03-06T09:18:10;9.10;99.90
21487;DHT22;10905;50.822;4.336;2024-03-06T09:20:36;9.10;99.90
21487;DHT22;10905;50.822;4.336;2024-03-06T09:23:02;9.20;99.90
21487;DHT22;10905;50.822;4.336;2024-03-06T09:25:28;9.20;99.90
21487;DHT22;10905;50.822;4.336;2024-03-06T09:27:54;9.40;99.90
21487;DHT22;10905;50.822;4.336;2024-03-06T09:30:19;9.50;99.90
21487;DHT22;10905;50.822;4.336;2024-03-06T09:32:45;9.60;99.90
21487;DHT22;10905;50.822;4.336;2024-03-06T09:35:11;9.50;99.90
21487;DHT22;10905;50.822;4.336;2024-03-06T09:37:37;9.50;99.90
21487;DHT22;10905;50.822;4.336;2024-03-06T09:40:03;9.50;99.90
21487;DHT22;10905;50.822;4.336;2024-03-06T09:42:29;9.60;99.90
21487;DHT22;10905;50.822;4.336;2024-03-06T09:44:55;9.60;99.90
21487;DHT22;10905;50.822;4.336;2024-03-06T09:47:22;9.70;99.90
21487;DHT22;10905;50.822;4.336;2024-03-06T09:49:52;9.70;99.90
21487;DHT22;10905;50.822;4.336;2024-03-06T09:52:19;9.80;99.90
21487;DHT22;10905;50.822;4.336;2024-03-06T09:54:44;10.00;99.90
21487;DHT22;10905;50.822;4.336;2024-03-06T09:57:10;10.10;99.90
21487;DHT22;10905;50.822;4.336;2024-03-06T09:59:38;10.00;99.90
21487;DHT22;10905;50.822;4.336;2024-03-06T10:04:58;10.10;99.90
21487;DHT22;10905;50.822;4.336;2024-03-06T10:07:24;10.20;99.90
21487;DHT22;10905;50.822;4.336;2024-03-06T10:09:49;10.10;99.90
21487;DHT22;10905;50.822;4.336;2024-03-06T10:12:18;10.30;99.90
21487;DHT22;10905;50.822;4.336;2024-03-06T10:14:52;10.40;99.90
21487;DHT22;10905;50.822;4.336;2024-03-06T10:17:20;10.30;99.90
21487;DHT22;10905;50.822;4.336;2024-03-06T10:19:49;10.30;99.90
21487;DHT22;10905;50.822;4.336;2024-03-06T10:22:18;10.40;99.90
21487;DHT22;10905;50.822;4.336;2024-03-06T10:24:45;10.50;99.90
21487;DHT22;10905;50.822;4.336;2024-03-06T10:27:15;10.60;99.90
21487;DHT22;10905;50.822;4.336;2024-03-06T10:29:43;10.60;99.90
21487;DHT22;10905;50.822;4.336;2024-03-06T10:32:09;10.70;99.90
21487;DHT22;10905;50.822;4.336;2024-03-06T10:34:37;10.70;99.90
21487;DHT22;10905;50.822;4.336;2024-03-06T10:37:04;10.80;99.90
21487;DHT22;10905;50.822;4.336;2024-03-06T10:39:39;11.00;99.90
21487;DHT22;10905;50.822;4.336;2024-03-06T10:42:07;11.00;99.90
21487;DHT22;10905;50.822;4.336;2024-03-06T10:44:34;11.10;99.90
21487;DHT22;10905;50.822;4.336;2024-03-06T10:47:02;11.20;99.90
21487;DHT22;10905;50.822;4.336;2024-03-06T10:49:29;11.20;99.90
21487;DHT22;10905;50.822;4.336;2024-03-06T10:52:00;11.30;99.90
21487;DHT22;10905;50.822;4.336;2024-03-06T10:54:30;11.30;99.90
21487;DHT22;10905;50.822;4.336;2024-03-06T10:56:56;11.40;99.90
21487;DHT22;10905;50.822;4.336;2024-03-06T10:59:25;11.40;99.90
21487;DHT22;10905;50.822;4.336;2024-03-06T11:01:53;11.50;99.90
21487;DHT22;10905;50.822;4.336;2024-03-06T11:04:19;11.80;99.90
21487;DHT22;10905;50.822;4.336;2024-03-06T11:06:45;12.00;99.90
21487;DHT22;10905;50.822;4.336;2024-03-06T11:09:11;12.00;99.90
21487;DHT22;10905;50.822;4.336;2024-03-06T11:11:50;11.80;99.90
21487;DHT22;10905;50.822;4.336;2024-03-06T11:14:22;12.00;99.90
21487;DHT22;10905;50.822;4.336;2024-03-06T11:19:30;12.10;99.90
21487;DHT22;10905;50.822;4.336;2024-03-06T11:21:56;12.10;99.90
21487;DHT22;10905;50.822;4.336;2024-03-06T11:24:32;12.00;99.90
21487;DHT22;10905;50.822;4.336;2024-03-06T11:29:24;12.20;99.90
21487;DHT22;10905;50.822;4.336;2024-03-06T11:32:03;12.20;99.90
21487;DHT22;10905;50.822;4.336;2024-03-06T11:34:32;12.40;99.90
21487;DHT22;10905;50.822;4.336;2024-03-06T11:36:57;12.20;99.90
21487;DHT22;10905;50.822;4.336;2024-03-06T11:39:27;12.20;99.90
21487;DHT22;10905;50.822;4.336;2024-03-06T11:41:53;12.20;99.90
21487;DHT22;10905;50.822;4.336;2024-03-06T11:44:22;12.40;99.90
21487;DHT22;10905;50.822;4.336;2024-03-06T11:47:00;12.60;99.90
21487;DHT22;10905;50.822;4.336;2024-03-06T11:49:33;12.60;99.90
21487;DHT22;10905;50.822;4.336;2024-03-06T11:52:05;12.80;99.90
21487;DHT22;10905;50.822;4.336;2024-03-06T11:54:31;12.80;99.90
21487;DHT22;10905;50.822;4.336;2024-03-06T11:56:59;12.80;99.90
21487;DHT22;10905;50.822;4.336;2024-03-06T11:59:29;12.60;99.90
21487;DHT22;10905;50.822;4.336;2024-03-06T12:01:55;12.50;99.90
21487;DHT22;10905;50.822;4.336;2024-03-06T12:04:22;12.40;99.90
21487;DHT22;10905;50.822;4.336;2024-03-06T12:06:48;12.30;99.90
21487;DHT22;10905;50.822;4.336;2024-03-06T12:09:14;12.30;99.90
21487;DHT22;10905;50.822;4.336;2024-03-06T12:11:41;12.60;99.90
21487;DHT22;10905;50.822;4.336;2024-03-06T12:14:16;12.80;99.90
21487;DHT22;10905;50.822;4.336;2024-03-06T12:17:04;13.10;99.90
21487;DHT22;10905;50.822;4.336;2024-03-06T12:19:33;13.40;99.90
21487;DHT22;10905;50.822;4.336;2024-03-06T12:22:02;13.50;99.90
21487;DHT22;10905;50.822;4.336;2024-03-06T12:24:32;13.80;99.90
21487;DHT22;10905;50.822;4.336;2024-03-06T12:27:04;13.90;99.90
21487;DHT22;10905;50.822;4.336;2024-03-06T12:29:31;14.00;99.90
21487;DHT22;10905;50.822;4.336;2024-03-06T12:31:58;14.10;99.90
21487;DHT22;10905;50.822;4.336;2024-03-06T12:34:24;14.20;99.90
21487;DHT22;10905;50.822;4.336;2024-03-06T12:36:49;14.20;99.90
21487;DHT22;10905;50.822;4.336;2024-03-06T12:39:16;13.90;99.90
21487;DHT22;10905;50.822;4.336;2024-03-06T12:41:50;13.90;99.90
21487;DHT22;10905;50.822;4.336;2024-03-06T12:44:16;14.10;99.90
21487;DHT22;10905;50.822;4.336;2024-03-06T12:46:42;14.10;99.90
21487;DHT22;10905;50.822;4.336;2024-03-06T12:49:07;13.90;99.90
21487;DHT22;10905;50.822;4.336;2024-03-06T12:51:33;14.00;99.90
21487;DHT22;10905;50.822;4.336;2024-03-06T12:53:59;14.00;99.90
21487;DHT22;10905;50.822;4.336;2024-03-06T12:56:26;14.00;99.90
21487;DHT22;10905;50.822;4.336;2024-03-06T12:58:52;13.90;99.90
21487;DHT22;10905;50.822;4.336;2024-03-06T13:01:17;13.80;99.90
21487;DHT22;10905;50.822;4.336;2024-03-06T13:03:43;13.60;99.90
21487;DHT22;10905;50.822;4.336;2024-03-06T13:06:08;13.50;99.90
21487;DHT22;10905;50.822;4.336;2024-03-06T13:08:35;13.40;99.90
21487;DHT22;10905;50.822;4.336;2024-03-06T13:11:01;13.40;99.90
21487;DHT22;10905;50.822;4.336;2024-03-06T13:13:27;13.30;99.90
21487;DHT22;10905;50.822;4.336;2024-03-06T13:15:55;13.30;99.90
21487;DHT22;10905;50.822;4.336;2024-03-06T13:18:20;13.40;99.90
21487;DHT22;10905;50.822;4.336;2024-03-06T13:20:46;13.50;99.90
21487;DHT22;10905;50.822;4.336;2024-03-06T13:23:12;13.40;99.90
21487;DHT22;10905;50.822;4.336;2024-03-06T13:25:38;13.20;99.90
21487;DHT22;10905;50.822;4.336;2024-03-06T13:28:05;13.10;99.90
21487;DHT22;10905;50.822;4.336;2024-03-06T13:30:30;12.90;99.90
21487;DHT22;10905;50.822;4.336;2024-03-06T13:32:56;12.80;99.90
21487;DHT22;10905;50.822;4.336;2024-03-06T13:35:22;12.60;99.90
21487;DHT22;10905;50.822;4.336;2024-03-06T13:37:47;12.50;99.90
21487;DHT22;10905;50.822;4.336;2024-03-06T13:40:14;12.60;99.90
21487;DHT22;10905;50.822;4.336;2024-03-06T13:42:41;12.40;99.90
21487;DHT22;10905;50.822;4.336;2024-03-06T13:45:08;12.50;99.90
21487;DHT22;10905;50.822;4.336;2024-03-06T13:47:41;12.70;99.90
21487;DHT22;10905;50.822;4.336;2024-03-06T13:50:09;12.80;99.90
21487;DHT22;10905;50.822;4.336;2024-03-06T13:52:34;12.80;99.90
21487;DHT22;10905;50.822;4.336;2024-03-06T13:55:00;12.70;99.90
21487;DHT22;10905;50.822;4.336;2024-03-06T13:57:36;12.80;99.90
21487;DHT22;10905;50.822;4.336;2024-03-06T14:00:09;12.80;99.90
21487;DHT22;10905;50.822;4.336;2024-03-06T14:02:38;12.90;99.90
21487;DHT22;10905;50.822;4.336;2024-03-06T14:05:05;12.70;99.90
21487;DHT22;10905;50.822;4.336;2024-03-06T14:07:31;12.90;99.90
21487;DHT22;10905;50.822;4.336;2024-03-06T14:09:57;12.90;99.90
21487;DHT22;10905;50.822;4.336;2024-03-06T14:12:23;12.90;99.90
21487;DHT22;10905;50.822;4.336;2024-03-06T14:14:49;13.00;99.90
21487;DHT22;10905;50.822;4.336;2024-03-06T14:17:14;13.00;99.90
21487;DHT22;10905;50.822;4.336;2024-03-06T14:19:40;13.00;99.90
21487;DHT22;10905;50.822;4.336;2024-03-06T14:22:07;13.00;99.90
21487;DHT22;10905;50.822;4.336;2024-03-06T14:24:32;13.00;99.90
21487;DHT22;10905;50.822;4.336;2024-03-06T14:26:58;13.20;99.90
21487;DHT22;10905;50.822;4.336;2024-03-06T14:29:24;13.30;99.90
21487;DHT22;10905;50.822;4.336;2024-03-06T14:31:51;13.40;99.90
21487;DHT22;10905;50.822;4.336;2024-03-06T14:34:17;13.40;99.90
21487;DHT22;10905;50.822;4.336;2024-03-06T14:36:42;13.40;99.90
21487;DHT22;10905;50.822;4.336;2024-03-06T14:39:08;13.40;99.90
21487;DHT22;10905;50.822;4.336;2024-03-06T14:41:36;13.40;99.90
21487;DHT22;10905;50.822;4.336;2024-03-06T14:44:01;13.50;99.90
21487;DHT22;10905;50.822;4.336;2024-03-06T14:46:28;13.50;99.90
21487;DHT22;10905;50.822;4.336;2024-03-06T14:48:54;13.40;99.90
21487;DHT22;10905;50.822;4.336;2024-03-06T14:51:22;13.40;99.90
21487;DHT22;10905;50.822;4.336;2024-03-06T14:53:47;13.50;99.90
21487;DHT22;10905;50.822;4.336;2024-03-06T14:56:13;13.50;99.90
21487;DHT22;10905;50.822;4.336;2024-03-06T14:58:39;13.60;99.90
21487;DHT22;10905;50.822;4.336;2024-03-06T15:01:05;13.60;99.90
21487;DHT22;10905;50.822;4.336;2024-03-06T15:03:31;13.60;99.90
21487;DHT22;10905;50.822;4.336;2024-03-06T15:05:57;13.60;99.90
21487;DHT22;10905;50.822;4.336;2024-03-06T15:08:22;13.50;99.90
21487;DHT22;10905;50.822;4.336;2024-03-06T15:10:49;13.40;99.90
21487;DHT22;10905;50.822;4.336;2024-03-06T15:13:17;13.00;99.90
21487;DHT22;10905;50.822;4.336;2024-03-06T15:15:44;12.80;99.90
21487;DHT22;10905;50.822;4.336;2024-03-06T15:18:10;12.60;99.90
21487;DHT22;10905;50.822;4.336;2024-03-06T15:20:35;12.70;99.90
21487;DHT22;10905;50.822;4.336;2024-03-06T15:23:01;12.80;99.90
21487;DHT22;10905;50.822;4.336;2024-03-06T15:25:27;13.00;99.90
21487;DHT22;10905;50.822;4.336;2024-03-06T15:27:53;13.30;99.90
21487;DHT22;10905;50.822;4.336;2024-03-06T15:30:18;13.40;99.90
21487;DHT22;10905;50.822;4.336;2024-03-06T15:32:46;13.20;99.90
21487;DHT22;10905;50.822;4.336;2024-03-06T15:35:11;13.30;99.90
21487;DHT22;10905;50.822;4.336;2024-03-06T15:37:37;13.40;99.90
21487;DHT22;10905;50.822;4.336;2024-03-06T15:40:03;13.40;99.90
21487;DHT22;10905;50.822;4.336;2024-03-06T15:42:31;13.10;99.90
21487;DHT22;10905;50.822;4.336;2024-03-06T15:44:57;13.10;99.90